SAVY/PMY METAR and TAF weather

Enter ICAO airport designator
Station Type Date Time Source
SAVY METAR 2019/01/30 19:15 UTC NOAA

SAVY 301915Z 07015KT 9999 FEW035 21/07 Q1011


Station Type Date Time Source
SAVY Decoded METAR 2019/01/30 19:15 UTC NOAA

Puerto Madryn, CHT, Argentina (SAVY) 42-45-33S 065-06-10W
Jan 30, 2019 - 02:15 PM EST / 2019.01.30 1915 UTC
Wind: from the ENE (070 degrees) at 17 MPH (15 KT):0
Visibility: greater than 7 mile(s):0
Sky conditions: mostly clear
Temperature: 69 F (21 C)
Dew Point: 44 F (7 C)
Relative Humidity: 40%
Pressure (altimeter): 29.85 in. Hg (1011 hPa)
ob: SAVY 301915Z 07015KT 9999 FEW035 21/07 Q1011
cycle: 19

Station Type Date Time Source
SAVY TAF UTC NOAA

Error!


Example: see airport list